Time;durP1;ratioP1;P1;durP2;ratioP2;P2;SDS_P1;SDS_P2;PMS_P1;PMS_P2;Temp;Humidity;BMP_temperature;BMP_pressure;BME280_temperature;BME280_humidity;BME280_pressure;Samples;Min_cycle;Max_cycle;Signal;HPM_P1;HPM_P2
2024/03/15 00:00:58;;;;;;;;;;;;;;;20.56;42.94;95337.63;10295659;28;1956;-73
2024/03/15 00:05:59;;;;;;;;;;;;;;;20.53;43.38;95340.78;10279972;28;2073;-73
2024/03/15 00:11:00;;;;;;;;;;;;;;;20.52;43.05;95335.81;10310262;28;2042;-75
2024/03/15 00:16:00;;;;;;;;;;;;;;;20.50;42.88;95330.84;10309239;28;2437;-74
2024/03/15 00:21:00;;;;;;;;;;;;;;;20.51;43.14;95334.25;10305323;28;2377;-73
2024/03/15 00:26:01;;;;;;;;;;;;;;;20.49;43.22;95339.78;10309249;28;2119;-73
2024/03/15 00:31:04;;;;;;;;;;;;;;;20.48;43.05;95340.09;10293384;28;2037;-74
2024/03/15 00:36:04;;;;;;;;;;;;;;;20.46;43.27;95332.47;10308540;28;2053;-73
2024/03/15 00:41:05;;;;;;;;;;;;;;;20.47;43.24;95327.97;10293027;28;2131;-75
2024/03/15 00:46:05;;;;;;;;;;;;;;;20.45;43.15;95325.63;10294325;28;2146;-73
2024/03/15 00:51:05;;;;;;;;;;;;;;;20.43;43.15;95322.50;10297168;28;2133;-73
2024/03/15 00:56:05;;;;;;;;;;;;;;;20.42;43.04;95320.16;10295548;28;2520;-73
2024/03/15 01:01:06;;;;;;;;;;;;;;;20.42;43.05;95318.31;10304603;28;2166;-73
2024/03/15 01:06:07;;;;;;;;;;;;;;;20.40;43.25;95306.50;10278754;28;2062;-73
2024/03/15 01:11:07;;;;;;;;;;;;;;;20.39;42.90;95310.16;10286726;28;2170;-73
2024/03/15 01:16:09;;;;;;;;;;;;;;;20.38;43.20;95303.34;10290126;28;2109;-73
2024/03/15 01:21:09;;;;;;;;;;;;;;;20.37;43.16;95307.81;10305598;28;2018;-73
2024/03/15 01:26:09;;;;;;;;;;;;;;;20.36;43.15;95300.97;10309773;28;2058;-73
2024/03/15 01:31:10;;;;;;;;;;;;;;;20.35;43.13;95298.63;10310322;28;2184;-73
2024/03/15 01:36:10;;;;;;;;;;;;;;;20.34;42.84;95311.00;10291254;28;2416;-73
2024/03/15 01:41:10;;;;;;;;;;;;;;;20.32;43.11;95305.25;10306295;28;2045;-74
2024/03/15 01:46:10;;;;;;;;;;;;;;;20.32;43.15;95307.88;10282482;28;2113;-72
2024/03/15 01:51:11;;;;;;;;;;;;;;;20.31;42.96;95303.69;10275312;28;2030;-72
2024/03/15 01:56:12;;;;;;;;;;;;;;;20.31;42.97;95306.31;10292088;28;2044;-73
2024/03/15 02:01:13;;;;;;;;;;;;;;;20.29;42.77;95305.81;10295082;28;2139;-75
2024/03/15 02:06:14;;;;;;;;;;;;;;;20.28;43.02;95307.66;10292596;28;2137;-74
2024/03/15 02:11:14;;;;;;;;;;;;;;;20.26;42.99;95295.84;10277687;28;2102;-74
2024/03/15 02:16:15;;;;;;;;;;;;;;;20.27;42.93;95297.44;10291338;28;2091;-74
2024/03/15 02:21:16;;;;;;;;;;;;;;;20.25;43.07;95302.97;10290080;28;2398;-74
2024/03/15 02:26:17;;;;;;;;;;;;;;;20.25;42.94;95304.81;10290007;28;2093;-74
2024/03/15 02:31:21;;;;;;;;;;;;;;;20.24;43.04;95303.25;10274467;28;2093;-74
2024/03/15 02:36:21;;;;;;;;;;;;;;;20.22;43.04;95305.38;10291330;28;2121;-74
2024/03/15 02:41:21;;;;;;;;;;;;;;;20.23;42.83;95312.22;10306566;28;2067;-74
2024/03/15 02:46:21;;;;;;;;;;;;;;;20.22;42.83;95314.06;10321468;28;2090;-74
2024/03/15 02:51:25;;;;;;;;;;;;;;;20.21;42.78;95316.97;10297378;28;2030;-73
2024/03/15 02:56:25;;;;;;;;;;;;;;;20.20;42.94;95318.03;10281621;28;2159;-74
2024/03/15 03:01:25;;;;;;;;;;;;;;;20.20;42.75;95318.03;10304931;28;2082;-73
2024/03/15 03:06:26;;;;;;;;;;;;;;;20.18;43.10;95317.50;10328224;28;2178;-73
2024/03/15 03:11:26;;;;;;;;;;;;;;;20.18;43.03;95320.13;10311761;28;2114;-74
2024/03/15 03:16:26;;;;;;;;;;;;;;;20.16;42.75;95323.06;10310132;28;2467;-73
2024/03/15 03:21:27;;;;;;;;;;;;;;;20.16;42.88;95317.00;10309718;28;2038;-74
2024/03/15 03:26:27;;;;;;;;;;;;;;;20.14;42.71;95322.56;10298879;28;1949;-73
2024/03/15 03:31:28;;;;;;;;;;;;;;;20.15;42.66;95320.72;10297589;28;2213;-74
2024/03/15 03:36:28;;;;;;;;;;;;;;;20.13;42.88;95328.09;10295840;28;2427;-73
2024/03/15 03:41:29;;;;;;;;;;;;;;;20.12;42.83;95319.41;10299313;28;2132;-73
2024/03/15 03:46:29;;;;;;;;;;;;;;;20.12;42.67;95321.25;10294849;28;2066;-73
2024/03/15 03:51:29;;;;;;;;;;;;;;;20.11;42.88;95328.34;10297789;28;2026;-73
2024/03/15 03:56:30;;;;;;;;;;;;;;;20.11;42.84;95324.97;10298272;28;2054;-73
2024/03/15 04:01:33;;;;;;;;;;;;;;;20.09;42.86;95327.09;10282360;28;2309;-74
2024/03/15 04:06:34;;;;;;;;;;;;;;;20.09;42.62;95329.72;10322594;28;2111;-73
2024/03/15 04:11:35;;;;;;;;;;;;;;;20.07;42.90;95324.72;10294143;28;2512;-73
2024/03/15 04:16:35;;;;;;;;;;;;;;;20.07;42.66;95329.22;10326773;28;2088;-74
2024/03/15 04:21:36;;;;;;;;;;;;;;;20.06;42.64;95328.44;10308080;28;2096;-73
2024/03/15 04:26:36;;;;;;;;;;;;;;;20.05;42.72;95331.34;10292190;28;2002;-74
2024/03/15 04:31:40;;;;;;;;;;;;;;;20.04;42.84;95325.28;10293654;28;2142;-74
2024/03/15 04:36:41;;;;;;;;;;;;;;;20.05;42.57;95326.09;10293073;28;2029;-74
2024/03/15 04:41:41;;;;;;;;;;;;;;;20.04;42.70;95335.03;10295429;28;2105;-73
2024/03/15 04:46:42;;;;;;;;;;;;;;;20.02;42.71;95335.31;10293988;28;2115;-74
2024/03/15 04:51:42;;;;;;;;;;;;;;;20.03;42.60;95338.75;10281583;28;2382;-74
2024/03/15 04:56:45;;;;;;;;;;;;;;;20.01;42.43;95348.75;10298418;28;2131;-74
2024/03/15 05:01:45;;;;;;;;;;;;;;;20.00;42.72;95345.34;10294876;28;2222;-73
2024/03/15 05:06:46;;;;;;;;;;;;;;;20.00;43.00;95353.22;10292962;28;2091;-73
2024/03/15 05:11:46;;;;;;;;;;;;;;;20.01;42.96;95349.50;10288674;28;1997;-74
2024/03/15 05:16:55;;;;;;;;;;;;;;;20.05;42.76;95336.63;10289791;28;2106;-74
2024/03/15 05:21:56;;;;;;;;;;;;;;;20.12;42.68;95351.00;10294288;28;2046;-73
2024/03/15 05:26:57;;;;;;;;;;;;;;;20.20;41.97;95347.78;10290380;28;2134;-73
2024/03/15 05:31:58;;;;;;;;;;;;;;;20.25;41.68;95358.25;10280611;28;2056;-72
2024/03/15 05:36:58;;;;;;;;;;;;;;;20.29;41.50;95358.47;10292111;28;2576;-73
2024/03/15 05:41:58;;;;;;;;;;;;;;;20.34;41.12;95358.41;10290536;28;2076;-73
2024/03/15 05:46:59;;;;;;;;;;;;;;;20.39;41.53;95360.19;10278865;28;2103;-73
2024/03/15 05:51:59;;;;;;;;;;;;;;;20.45;40.90;95366.97;10294277;28;2001;-72
2024/03/15 05:56:59;;;;;;;;;;;;;;;20.49;40.42;95374.03;10324803;28;2092;-72
2024/03/15 06:02:00;;;;;;;;;;;;;;;20.54;40.57;95370.56;10292236;28;2113;-73
2024/03/15 06:07:00;;;;;;;;;;;;;;;20.57;40.60;95381.28;10310167;28;2093;-72
2024/03/15 06:12:00;;;;;;;;;;;;;;;20.59;40.26;95384.44;10324445;28;2330;-72
2024/03/15 06:17:01;;;;;;;;;;;;;;;20.63;40.25;95380.16;10289214;28;2503;-67
2024/03/15 06:22:01;;;;;;;;;;;;;;;20.65;40.19;95387.81;10291012;28;2104;-74
2024/03/15 06:27:02;;;;;;;;;;;;;;;20.68;40.43;95382.75;10309072;28;2156;-67
2024/03/15 06:32:02;;;;;;;;;;;;;;;20.71;40.03;95387.44;10278217;28;2177;-68
2024/03/15 06:37:06;;;;;;;;;;;;;;;20.74;39.95;95378.19;10293967;28;2129;-70
2024/03/15 06:42:20;;;;;;;;;;;;;;;20.73;40.55;95385.31;10285431;28;2177;-68
2024/03/15 06:47:28;;;;;;;;;;;;;;;20.76;40.38;95384.75;10309279;28;2095;-74
2024/03/15 06:52:34;;;;;;;;;;;;;;;20.80;40.58;95387.59;10294921;28;2108;-75
2024/03/15 06:57:37;;;;;;;;;;;;;;;20.85;40.63;95392.81;10277422;28;2089;-75
2024/03/15 07:02:44;;;;;;;;;;;;;;;20.84;40.46;95402.56;10324902;28;2520;-74
2024/03/15 07:07:44;;;;;;;;;;;;;;;20.91;40.08;95397.75;10297550;28;2046;-74
2024/03/15 07:12:46;;;;;;;;;;;;;;;20.92;40.18;95396.66;10290125;28;2075;-74
2024/03/15 07:17:47;;;;;;;;;;;;;;;20.93;40.00;95402.72;10289861;28;2349;-72
2024/03/15 07:22:47;;;;;;;;;;;;;;;20.91;40.56;95407.47;10306946;28;2039;-72
2024/03/15 07:27:48;;;;;;;;;;;;;;;20.94;40.53;95397.16;10307123;28;2398;-73
2024/03/15 07:32:51;;;;;;;;;;;;;;;20.92;40.58;95407.19;10309171;28;2094;-72
2024/03/15 07:37:53;;;;;;;;;;;;;;;20.97;40.17;95401.88;10309771;28;2135;-73
2024/03/15 07:42:56;;;;;;;;;;;;;;;20.95;40.56;95404.00;10277603;28;2150;-73
2024/03/15 07:47:56;;;;;;;;;;;;;;;20.98;39.88;95408.69;10291706;28;2095;-72
2024/03/15 07:52:57;;;;;;;;;;;;;;;20.96;40.62;95410.81;10275534;28;2042;-72
2024/03/15 07:57:57;;;;;;;;;;;;;;;20.95;40.68;95409.28;10274534;28;2200;-72
2024/03/15 08:02:58;;;;;;;;;;;;;;;21.00;40.67;95417.09;10291418;28;2060;-72
2024/03/15 08:07:58;;;;;;;;;;;;;;;21.04;40.38;95410.22;10290768;28;2068;-74
2024/03/15 08:12:58;;;;;;;;;;;;;;;21.01;40.65;95421.31;10283562;28;2046;-72
2024/03/15 08:17:59;;;;;;;;;;;;;;;21.03;40.67;95419.22;10290189;28;2118;-72
2024/03/15 08:22:59;;;;;;;;;;;;;;;21.04;40.40;95426.03;10263538;28;2228;-72
2024/03/15 08:28:13;;;;;;;;;;;;;;;21.05;41.58;95426.81;10291689;28;1990;-74
2024/03/15 08:33:23;;;;;;;;;;;;;;;21.11;40.85;95427.53;10299767;28;2117;-71
2024/03/15 08:38:24;;;;;;;;;;;;;;;21.13;41.11;95428.03;10315635;28;2445;-72
2024/03/15 08:43:24;;;;;;;;;;;;;;;21.12;41.17;95431.75;10291858;28;2058;-71
2024/03/15 08:48:27;;;;;;;;;;;;;;;21.13;41.23;95435.94;10290423;28;1925;-73
2024/03/15 08:53:28;;;;;;;;;;;;;;;21.15;40.87;95439.84;10289772;28;2070;-69
2024/03/15 08:58:28;;;;;;;;;;;;;;;21.14;40.83;95443.56;10287408;28;2060;-69
2024/03/15 09:03:28;;;;;;;;;;;;;;;21.19;40.75;95440.84;10292658;28;2105;-74
2024/03/15 09:08:29;;;;;;;;;;;;;;;21.16;40.96;95451.19;10322527;28;2120;-74
2024/03/15 09:13:29;;;;;;;;;;;;;;;21.21;40.76;95445.84;10291144;28;2200;-72
2024/03/15 09:18:29;;;;;;;;;;;;;;;21.21;40.53;95451.09;10318188;27;2319;-70
2024/03/15 09:23:29;;;;;;;;;;;;;;;21.21;40.64;95459.03;10319295;28;2056;-71
2024/03/15 09:28:37;;;;;;;;;;;;;;;21.21;40.34;95454.53;10286844;28;2050;-70
2024/03/15 09:33:38;;;;;;;;;;;;;;;21.26;40.53;95456.31;10287371;28;1996;-71
2024/03/15 09:38:39;;;;;;;;;;;;;;;21.23;40.73;95454.25;10273852;28;2121;-70
2024/03/15 09:43:39;;;;;;;;;;;;;;;21.21;41.10;95454.53;10287862;28;2305;-70
2024/03/15 09:48:40;;;;;;;;;;;;;;;21.22;40.79;95453.47;10286791;28;2050;-70
2024/03/15 09:53:40;;;;;;;;;;;;;;;21.29;40.03;95461.03;10290956;28;2008;-70
2024/03/15 09:58:49;;;;;;;;;;;;;;;21.28;40.36;95465.53;10287941;28;2115;-70
2024/03/15 10:03:49;;;;;;;;;;;;;;;21.29;40.72;95458.41;10291787;28;2061;-69
2024/03/15 10:08:50;;;;;;;;;;;;;;;21.28;40.63;95470.81;10289703;28;1967;-70
2024/03/15 10:13:50;;;;;;;;;;;;;;;21.30;41.00;95470.50;10289387;28;2049;-69
2024/03/15 10:18:51;;;;;;;;;;;;;;;21.29;41.14;95476.88;10297394;28;2319;-70
2024/03/15 10:23:51;;;;;;;;;;;;;;;21.29;41.11;95463.69;10310353;28;2252;-71
2024/03/15 10:28:52;;;;;;;;;;;;;;;21.33;40.44;95472.59;10280158;28;2155;-71
2024/03/15 10:33:52;;;;;;;;;;;;;;;21.32;41.34;95469.16;10300655;28;1944;-71
2024/03/15 10:38:52;;;;;;;;;;;;;;;21.27;41.28;95469.22;10327059;28;2210;-69
2024/03/15 10:43:54;;;;;;;;;;;;;;;21.29;41.32;95468.94;10295307;28;2053;-69
2024/03/15 10:48:55;;;;;;;;;;;;;;;21.31;40.71;95464.19;10294967;28;2023;-71
2024/03/15 10:53:56;;;;;;;;;;;;;;;21.36;40.91;95472.78;10298896;28;2058;-72
2024/03/15 10:58:56;;;;;;;;;;;;;;;21.33;41.08;95469.94;10293383;28;2080;-72
2024/03/15 11:03:56;;;;;;;;;;;;;;;21.33;41.46;95462.81;10293245;28;2263;-71
2024/03/15 11:08:57;;;;;;;;;;;;;;;21.34;40.86;95460.97;10294001;28;2083;-65
2024/03/15 11:13:57;;;;;;;;;;;;;;;21.38;41.05;95460.09;10294513;28;2106;-72
2024/03/15 11:19:04;;;;;;;;;;;;;;;21.41;41.51;95458.75;10293157;28;2014;-71
2024/03/15 11:24:10;;;;;;;;;;;;;;;21.37;40.33;95455.88;10289681;28;2013;-72
2024/03/15 11:29:19;;;;;;;;;;;;;;;21.36;41.48;95456.19;10288621;28;2085;-72
2024/03/15 11:34:19;;;;;;;;;;;;;;;21.34;41.56;95448.56;10294566;28;2074;-72
2024/03/15 11:39:20;;;;;;;;;;;;;;;21.34;41.72;95445.94;10307565;28;2104;-71
2024/03/15 11:44:20;;;;;;;;;;;;;;;21.33;41.25;95446.97;10290351;28;2097;-71
2024/03/15 11:49:20;;;;;;;;;;;;;;;21.34;41.91;95445.13;10277691;28;2093;-71
2024/03/15 11:54:20;;;;;;;;;;;;;;;21.30;41.94;95449.41;10310425;28;2084;-71
2024/03/15 11:59:21;;;;;;;;;;;;;;;21.27;42.35;95442.84;10274713;28;2428;-72
2024/03/15 12:04:24;;;;;;;;;;;;;;;21.25;42.26;95439.72;10288728;28;2185;-71
2024/03/15 12:09:25;;;;;;;;;;;;;;;21.21;42.68;95437.94;10294791;28;2095;-73
2024/03/15 12:14:25;;;;;;;;;;;;;;;21.21;43.20;95440.56;10289356;28;2109;-74
2024/03/15 12:19:25;;;;;;;;;;;;;;;21.20;43.40;95433.75;10328224;28;2009;-72
2024/03/15 12:24:26;;;;;;;;;;;;;;;21.20;43.25;95421.34;10317663;28;1883;-73
2024/03/15 12:29:26;;;;;;;;;;;;;;;21.19;43.56;95408.44;10311469;28;1813;-76
2024/03/15 12:34:26;;;;;;;;;;;;;;;21.19;43.86;95408.44;10311420;28;1905;-73
2024/03/15 12:39:27;;;;;;;;;;;;;;;21.19;43.65;95403.16;10307734;28;1425;-72
2024/03/15 12:44:27;;;;;;;;;;;;;;;21.19;43.99;95403.16;10310110;28;1902;-73
2024/03/15 12:49:27;;;;;;;;;;;;;;;21.17;44.37;95394.75;10320517;28;2421;-71
2024/03/15 12:54:27;;;;;;;;;;;;;;;21.17;44.21;95389.50;10313780;28;1492;-75
2024/03/15 12:59:28;;;;;;;;;;;;;;;21.18;44.60;95383.16;10325483;28;1926;-74
2024/03/15 13:04:28;;;;;;;;;;;;;;;21.18;43.99;95389.22;10309923;28;2007;-75
2024/03/15 13:09:28;;;;;;;;;;;;;;;21.18;44.18;95388.44;10308853;28;1858;-76
2024/03/15 13:14:30;;;;;;;;;;;;;;;21.18;44.17;95385.78;10326619;28;2042;-77
2024/03/15 13:19:30;;;;;;;;;;;;;;;21.16;43.98;95391.38;10307204;28;2026;-77
2024/03/15 13:24:31;;;;;;;;;;;;;;;21.16;44.56;95395.84;10318105;28;1943;-75
2024/03/15 13:29:31;;;;;;;;;;;;;;;21.18;44.75;95383.16;10313103;28;2292;-76
2024/03/15 13:34:31;;;;;;;;;;;;;;;21.18;44.76;95377.88;10299055;28;1935;-74
2024/03/15 13:39:31;;;;;;;;;;;;;;;21.19;45.15;95382.06;10307674;28;1826;-73
2024/03/15 13:44:34;;;;;;;;;;;;;;;21.18;45.12;95383.94;10308032;28;1906;-75
2024/03/15 13:49:35;;;;;;;;;;;;;;;21.18;45.17;95380.53;10316267;28;2067;-76
2024/03/15 13:54:35;;;;;;;;;;;;;;;21.18;45.40;95383.16;10304330;28;1839;-76
2024/03/15 13:59:35;;;;;;;;;;;;;;;21.10;40.67;95370.63;10299099;28;1892;-75
2024/03/15 14:04:35;;;;;;;;;;;;;;;21.04;43.89;95368.06;10289412;28;1994;-75
2024/03/15 14:09:36;;;;;;;;;;;;;;;21.08;44.54;95370.13;10312292;28;1882;-75
2024/03/15 14:14:36;;;;;;;;;;;;;;;21.08;45.09;95364.88;10322817;28;1834;-74
2024/03/15 14:19:36;;;;;;;;;;;;;;;21.07;44.85;95364.06;10306210;28;1570;-74
2024/03/15 14:24:37;;;;;;;;;;;;;;;21.05;45.18;95369.63;10331767;28;2545;-74
2024/03/15 14:29:37;;;;;;;;;;;;;;;21.07;44.82;95361.44;10308302;28;1870;-75
2024/03/15 14:34:37;;;;;;;;;;;;;;;21.06;45.31;95344.84;10292493;28;1842;-76
2024/03/15 14:39:41;;;;;;;;;;;;;;;21.10;46.04;95358.25;10386709;28;2046;-73
2024/03/15 14:44:41;;;;;;;;;;;;;;;21.13;46.00;95356.88;10301337;28;1973;-74
2024/03/15 14:49:42;;;;;;;;;;;;;;;21.17;45.29;95355.22;10331844;28;1966;-73
2024/03/15 14:54:48;;;;;;;;;;;;;;;21.21;44.81;95351.72;10302478;28;1806;-74
2024/03/15 14:59:48;;;;;;;;;;;;;;;21.24;44.58;95337.19;10298699;28;1868;-73
2024/03/15 15:04:49;;;;;;;;;;;;;;;21.28;44.84;95349.53;10304168;28;1903;-76
2024/03/15 15:09:51;;;;;;;;;;;;;;;21.28;43.05;95356.66;10313929;28;2341;-74
2024/03/15 15:14:51;;;;;;;;;;;;;;;21.31;42.44;95354.22;10294308;28;1925;-74
2024/03/15 15:19:51;;;;;;;;;;;;;;;21.36;42.49;95362.06;10313998;28;1855;-74
2024/03/15 15:24:53;;;;;;;;;;;;;;;21.38;42.82;95354.63;10311840;28;2006;-74
2024/03/15 15:29:54;;;;;;;;;;;;;;;21.46;42.70;95347.91;10318759;28;2074;-75
2024/03/15 15:34:55;;;;;;;;;;;;;;;21.49;42.47;95350.00;10305061;28;1825;-74
2024/03/15 15:39:55;;;;;;;;;;;;;;;21.51;42.38;95351.28;10349865;27;1846;-75
2024/03/15 15:44:56;;;;;;;;;;;;;;;21.54;42.38;95360.44;10340199;28;2060;-75
2024/03/15 15:49:57;;;;;;;;;;;;;;;21.57;42.44;95346.69;10324475;28;2060;-75
2024/03/15 15:54:57;;;;;;;;;;;;;;;21.59;42.96;95371.72;10312210;28;1902;-71
2024/03/15 15:59:59;;;;;;;;;;;;;;;21.57;42.83;95368.59;10307217;28;2565;-74
2024/03/15 16:04:59;;;;;;;;;;;;;;;21.62;42.90;95357.94;10308417;28;2014;-75
2024/03/15 16:09:59;;;;;;;;;;;;;;;21.65;43.75;95364.50;10323230;28;1963;-71
2024/03/15 16:15:00;;;;;;;;;;;;;;;21.69;42.43;95370.75;10306064;28;1956;-71
2024/03/15 16:20:00;;;;;;;;;;;;;;;21.70;42.86;95375.72;10309277;28;2165;-72
2024/03/15 16:25:01;;;;;;;;;;;;;;;21.71;42.55;95387.06;10313684;28;1954;-71
2024/03/15 16:30:03;;;;;;;;;;;;;;;21.74;42.51;95431.34;10344355;28;1854;-73
2024/03/15 16:35:09;;;;;;;;;;;;;;;21.75;42.22;95446.09;10391057;28;2019;-75
2024/03/15 16:40:10;;;;;;;;;;;;;;;21.79;42.65;95436.53;10313553;28;2780;-73
2024/03/15 16:45:11;;;;;;;;;;;;;;;21.81;43.32;95429.13;10302499;28;1979;-74
2024/03/15 16:50:11;;;;;;;;;;;;;;;21.85;43.49;95432.78;10304798;28;1804;-72
2024/03/15 16:55:11;;;;;;;;;;;;;;;21.80;43.22;95423.06;10290148;28;2065;-75
2024/03/15 17:00:16;;;;;;;;;;;;;;;21.79;43.31;95424.13;10289019;28;2128;-74
2024/03/15 17:05:17;;;;;;;;;;;;;;;21.82;43.13;95433.38;10276796;28;2259;-74
2024/03/15 17:10:18;;;;;;;;;;;;;;;21.80;42.58;95432.84;10294443;28;2058;-73
2024/03/15 17:15:19;;;;;;;;;;;;;;;21.80;43.42;95432.84;10290915;28;2066;-74
2024/03/15 17:20:19;;;;;;;;;;;;;;;21.79;42.84;95442.59;10295078;28;2060;-75
2024/03/15 17:25:20;;;;;;;;;;;;;;;21.81;42.82;95442.31;10293614;28;2361;-74
2024/03/15 17:30:20;;;;;;;;;;;;;;;21.79;42.65;95439.19;10293065;28;2089;-74
2024/03/15 17:35:20;;;;;;;;;;;;;;;21.83;42.81;95445.47;10293690;28;2135;-74
2024/03/15 17:40:20;;;;;;;;;;;;;;;21.79;43.12;95436.53;10293157;28;2239;-75
2024/03/15 17:45:21;;;;;;;;;;;;;;;21.82;42.72;95441.28;10291090;28;2618;-74
2024/03/15 17:50:27;;;;;;;;;;;;;;;21.75;42.93;95436.34;10292467;28;2043;-74
2024/03/15 17:55:30;;;;;;;;;;;;;;;21.79;42.55;95445.25;10320847;28;2099;-74
2024/03/15 18:00:32;;;;;;;;;;;;;;;21.78;42.88;95448.19;10295082;28;2198;-74
2024/03/15 18:05:33;;;;;;;;;;;;;;;21.79;42.43;95453.16;10306765;28;2082;-74
2024/03/15 18:10:33;;;;;;;;;;;;;;;21.80;42.55;95446.78;10291841;28;2277;-74
2024/03/15 18:15:34;;;;;;;;;;;;;;;21.78;42.55;95454.22;10294516;28;2058;-74
2024/03/15 18:20:35;;;;;;;;;;;;;;;21.79;42.13;95460.28;10288192;28;2158;-74
2024/03/15 18:25:36;;;;;;;;;;;;;;;21.75;42.21;95464.56;10293415;28;2081;-74
2024/03/15 18:30:36;;;;;;;;;;;;;;;21.78;42.35;95469.28;10282853;28;2737;-73
2024/03/15 18:35:36;;;;;;;;;;;;;;;21.77;42.71;95472.97;10294178;28;2337;-75
2024/03/15 18:40:37;;;;;;;;;;;;;;;21.79;42.14;95468.19;10314757;28;2062;-75
2024/03/15 18:45:40;;;;;;;;;;;;;;;21.81;42.22;95472.16;10327012;28;2203;-74
2024/03/15 18:50:40;;;;;;;;;;;;;;;21.81;42.44;95476.63;10366995;28;2050;-74
2024/03/15 18:55:40;;;;;;;;;;;;;;;21.83;41.69;95487.69;10297597;28;2102;-73
2024/03/15 19:00:42;;;;;;;;;;;;;;;21.83;41.88;95487.69;10299903;28;2039;-73
2024/03/15 19:05:43;;;;;;;;;;;;;;;21.80;42.05;95494.28;10299982;28;2062;-75
2024/03/15 19:10:46;;;;;;;;;;;;;;;21.83;42.34;95490.34;10295762;28;2210;-74
2024/03/15 19:15:46;;;;;;;;;;;;;;;21.82;42.28;95497.47;10280369;28;2232;-74
2024/03/15 19:20:47;;;;;;;;;;;;;;;21.87;41.94;95501.88;10295530;28;2286;-74
2024/03/15 19:25:47;;;;;;;;;;;;;;;21.85;41.45;95496.09;10294840;28;2143;-73
2024/03/15 19:30:48;;;;;;;;;;;;;;;21.91;41.71;95494.19;10294061;28;2721;-74
2024/03/15 19:35:48;;;;;;;;;;;;;;;22.04;41.88;95494.22;10293078;28;2054;-73
2024/03/15 19:40:49;;;;;;;;;;;;;;;22.09;41.57;95499.41;10297170;28;2027;-71
2024/03/15 19:45:51;;;;;;;;;;;;;;;22.19;41.49;95491.34;10322934;28;2070;-69
2024/03/15 19:50:52;;;;;;;;;;;;;;;22.29;40.96;95490.38;10295435;28;2134;-69
2024/03/15 19:55:52;;;;;;;;;;;;;;;22.37;40.32;95498.44;10325394;28;1979;-69
2024/03/15 20:00:52;;;;;;;;;;;;;;;22.44;40.80;95492.78;10295623;28;2053;-69
2024/03/15 20:05:56;;;;;;;;;;;;;;;22.50;40.47;95499.53;10298439;28;2126;-70
2024/03/15 20:10:56;;;;;;;;;;;;;;;22.58;39.90;95498.88;10322195;28;2213;-69
2024/03/15 20:15:57;;;;;;;;;;;;;;;22.61;39.98;95504.34;10294514;28;2211;-70
2024/03/15 20:20:57;;;;;;;;;;;;;;;22.67;40.10;95496.34;10304482;28;2199;-69
2024/03/15 20:25:58;;;;;;;;;;;;;;;22.72;40.13;95499.69;10294113;28;2596;-69
2024/03/15 20:30:58;;;;;;;;;;;;;;;22.75;40.13;95500.97;10309519;28;2122;-69
2024/03/15 20:35:59;;;;;;;;;;;;;;;22.79;39.98;95510.66;10291501;28;2055;-68
2024/03/15 20:40:59;;;;;;;;;;;;;;;22.79;40.09;95509.88;10293682;28;2054;-70
2024/03/15 20:45:59;;;;;;;;;;;;;;;22.82;39.84;95511.91;10292942;28;2105;-69
2024/03/15 20:51:00;;;;;;;;;;;;;;;22.83;39.95;95510.84;10320387;28;2053;-69
2024/03/15 20:56:00;;;;;;;;;;;;;;;22.83;40.09;95518.78;10293284;28;2066;-73
2024/03/15 21:01:00;;;;;;;;;;;;;;;22.65;39.30;95520.41;10292622;28;2093;-74
2024/03/15 21:06:01;;;;;;;;;;;;;;;22.53;39.84;95520.06;10300931;28;2242;-73
2024/03/15 21:11:01;;;;;;;;;;;;;;;22.45;39.79;95529.44;10291139;28;2107;-71
2024/03/15 21:16:03;;;;;;;;;;;;;;;22.38;39.48;95536.19;10294649;28;2603;-71
2024/03/15 21:21:03;;;;;;;;;;;;;;;22.33;40.01;95526.50;10307588;28;2170;-67
2024/03/15 21:26:04;;;;;;;;;;;;;;;22.28;39.96;95528.41;10293106;28;2394;-68
2024/03/15 21:31:04;;;;;;;;;;;;;;;22.23;40.07;95528.50;10293952;28;2108;-67
2024/03/15 21:36:04;;;;;;;;;;;;;;;22.19;41.68;95527.53;10292790;28;2103;-68
2024/03/15 21:41:05;;;;;;;;;;;;;;;22.13;40.80;95524.19;10292815;28;2065;-68
2024/03/15 21:46:08;;;;;;;;;;;;;;;22.11;40.41;95520.25;10294368;28;2090;-68
2024/03/15 21:51:09;;;;;;;;;;;;;;;22.02;41.82;95527.25;10322481;28;2015;-68
2024/03/15 21:56:10;;;;;;;;;;;;;;;21.98;41.24;95516.50;10294209;28;2051;-68
2024/03/15 22:01:12;;;;;;;;;;;;;;;21.92;43.47;95519.50;10292044;28;3052;-68
2024/03/15 22:06:12;;;;;;;;;;;;;;;21.92;42.08;95522.13;10279167;28;2153;-68
2024/03/15 22:11:12;;;;;;;;;;;;;;;21.86;42.69;95532.75;10320827;28;2006;-68
2024/03/15 22:16:13;;;;;;;;;;;;;;;21.88;40.75;95532.50;10291285;28;2077;-68
2024/03/15 22:21:13;;;;;;;;;;;;;;;21.80;42.14;95531.22;10276708;28;2098;-68
2024/03/15 22:26:13;;;;;;;;;;;;;;;21.75;42.58;95522.63;10292586;28;2110;-68
2024/03/15 22:31:15;;;;;;;;;;;;;;;21.71;42.13;95529.53;10320886;28;2128;-68
2024/03/15 22:36:15;;;;;;;;;;;;;;;21.66;42.52;95529.59;10293413;28;2136;-67
2024/03/15 22:41:16;;;;;;;;;;;;;;;21.61;43.41;95537.59;10308718;28;2155;-68
2024/03/15 22:46:16;;;;;;;;;;;;;;;21.59;43.12;95550.28;10320239;28;2216;-68
2024/03/15 22:51:16;;;;;;;;;;;;;;;21.57;42.53;95555.06;10289935;28;2688;-68
2024/03/15 22:56:17;;;;;;;;;;;;;;;21.54;42.67;95561.69;10288783;28;2066;-67
2024/03/15 23:01:22;;;;;;;;;;;;;;;21.50;43.47;95559.88;10293628;28;2104;-68
2024/03/15 23:06:24;;;;;;;;;;;;;;;21.49;43.52;95555.69;10319849;28;2042;-68
2024/03/15 23:11:24;;;;;;;;;;;;;;;21.46;43.60;95559.66;10288176;28;2150;-67
2024/03/15 23:16:24;;;;;;;;;;;;;;;21.43;43.84;95554.19;10288415;28;2090;-68
2024/03/15 23:21:26;;;;;;;;;;;;;;;21.40;43.74;95555.53;10308446;28;2110;-68
2024/03/15 23:26:28;;;;;;;;;;;;;;;21.37;44.19;95557.97;10325655;28;2102;-68
2024/03/15 23:31:28;;;;;;;;;;;;;;;21.35;43.27;95547.66;10297369;28;2535;-66
2024/03/15 23:36:28;;;;;;;;;;;;;;;21.33;43.75;95544.53;10277311;28;2034;-66
2024/03/15 23:41:29;;;;;;;;;;;;;;;21.30;43.89;95531.94;10295651;28;2298;-65
2024/03/15 23:46:29;;;;;;;;;;;;;;;21.29;43.64;95529.59;10292358;28;2016;-66
2024/03/15 23:51:29;;;;;;;;;;;;;;;21.26;43.69;95524.88;10280424;28;2097;-67
2024/03/15 23:56:30;;;;;;;;;;;;;;;21.24;43.57;95519.09;10295833;28;2301;-68
